Addison Township, Michigan
Current Conditions -  °F | °C
As of 4:53 PM on Tuesday 25 Nov 2014 (Local Time) from KD95 Reporting Station
Overcast Overcast  
Wind Chill: 24°   Ceiling: 3600
Heat Index: 31°   Visibility: 10mi
Dew Point: 24°   Wind: 8mph
Humidity: 76%   Direction: 260°W
Pressure: 30.06"   Gusts: NA
Location:  42.8434°N, 83.1398°W
Report Text: KD95 252153Z AUTO 26007KT 10SM SCT025 OVC036 00/M04 A3006 RMK AO2 T10051043
Loading
Personal Weather Stations






























Interactive Weather Map New forecast layout! Learn more

10-Day Weather Forecast

Advertisements
Track Severe Weather on mobile